Mannsville, Oklahoma
Current Conditions -  °F | °C
As of 2:55 PM on Saturday 20 Dec 2014 (Local Time) from KADM Reporting Station
Overcast Overcast  
Wind Chill: 45°   Ceiling: 1700
Heat Index: 45°   Visibility: 10mi
Dew Point: 39°   Wind: 3mph
Humidity: 81%   Direction: 230°SW
Pressure: 30.2"   Gusts: NA
Location:  34.19°N, 96.88°W
Report Text: KADM 202055Z 23003KT 10SM OVC017 07/04 A3020
Loading
Personal Weather Stations






























Interactive Weather Map New forecast layout! Learn more

10-Day Weather Forecast

Advertisements
Track Severe Weather on mobile